Time;durP1;ratioP1;P1;durP2;ratioP2;P2;SDS_P1;SDS_P2;PMS_P1;PMS_P2;Temp;Humidity;BMP_temperature;BMP_pressure;BME280_temperature;BME280_humidity;BME280_pressure;Samples;Min_cycle;Max_cycle;Signal;HPM_P1;HPM_P2
2023/08/04 00:01:21;;;;;;;6.30;4.53;;;15.70;99.90;;;;;;5033220;28;20230;-71
2023/08/04 00:03:46;;;;;;;10.43;5.13;;;15.70;99.90;;;;;;5031464;28;20187;-72
2023/08/04 00:06:12;;;;;;;7.17;4.80;;;15.70;99.90;;;;;;5031754;28;20218;-71
2023/08/04 00:08:37;;;;;;;10.80;4.80;;;15.70;99.90;;;;;;5034400;28;20189;-71
2023/08/04 00:11:03;;;;;;;9.17;5.30;;;15.70;99.90;;;;;;5050857;28;20215;-72
2023/08/04 00:13:31;;;;;;;8.07;5.17;;;15.70;99.90;;;;;;5050780;28;20188;-72
2023/08/04 00:16:16;;;;;;;9.23;4.50;;;15.70;99.90;;;;;;5049549;28;20206;-71
2023/08/04 00:18:42;;;;;;;7.50;4.67;;;15.60;99.90;;;;;;5046598;28;20191;-71
2023/08/04 00:21:07;;;;;;;10.10;4.87;;;15.60;99.90;;;;;;5031397;28;20195;-72
2023/08/04 00:23:33;;;;;;;5.30;4.80;;;15.60;99.90;;;;;;5047424;28;20175;-71
2023/08/04 00:25:59;;;;;;;6.13;4.53;;;15.50;99.90;;;;;;5049499;28;20179;-72
2023/08/04 00:28:24;;;;;;;10.83;4.77;;;15.50;99.90;;;;;;5049171;28;20416;-71
2023/08/04 00:30:50;;;;;;;9.97;4.67;;;15.50;99.90;;;;;;5031330;28;20611;-71
2023/08/04 00:33:15;;;;;;;8.27;4.67;;;15.50;99.90;;;;;;5047166;28;20233;-71
2023/08/04 00:35:41;;;;;;;10.83;4.40;;;15.50;99.90;;;;;;5032648;28;20649;-71
2023/08/04 00:38:07;;;;;;;7.53;4.60;;;15.50;99.90;;;;;;5031280;28;20560;-72
2023/08/04 00:40:32;;;;;;;5.90;4.20;;;15.50;99.90;;;;;;5049817;28;20202;-71
2023/08/04 00:42:58;;;;;;;5.73;4.70;;;15.50;99.90;;;;;;5050526;28;20179;-72
2023/08/04 00:45:29;;;;;;;8.37;4.80;;;15.50;99.90;;;;;;5051047;28;20305;-71
2023/08/04 00:47:54;;;;;;;7.90;4.47;;;15.50;99.90;;;;;;5050567;28;20191;-72
2023/08/04 00:50:20;;;;;;;11.90;5.03;;;15.50;99.90;;;;;;5052332;28;20217;-71
2023/08/04 00:52:46;;;;;;;9.77;5.00;;;15.50;99.90;;;;;;5054631;28;20729;-71
2023/08/04 00:55:14;;;;;;;7.43;4.27;;;15.50;99.90;;;;;;5054367;28;20236;-71
2023/08/04 00:57:40;;;;;;;11.23;4.70;;;15.50;99.90;;;;;;5054237;28;20213;-72
2023/08/04 01:00:06;;;;;;;13.07;4.90;;;15.50;99.90;;;;;;5054611;28;20234;-71
2023/08/04 01:02:33;;;;;;;5.67;4.40;;;15.50;99.90;;;;;;5054476;28;20202;-71
2023/08/04 01:05:00;;;;;;;8.27;4.40;;;15.50;99.90;;;;;;5046016;28;20201;-71
2023/08/04 01:07:30;;;;;;;8.33;4.67;;;15.50;99.90;;;;;;5036148;28;20183;-71
2023/08/04 01:10:16;;;;;;;8.60;4.53;;;15.60;99.90;;;;;;5034924;28;20459;-71
2023/08/04 01:13:03;;;;;;;10.73;4.53;;;15.50;99.90;;;;;;5019529;28;20232;-72
2023/08/04 01:15:30;;;;;;;12.43;5.37;;;15.40;99.90;;;;;;5036018;28;20183;-72
2023/08/04 01:17:56;;;;;;;11.47;4.83;;;15.30;99.90;;;;;;5054524;28;20229;-71
2023/08/04 01:20:23;;;;;;;7.57;5.07;;;15.30;99.90;;;;;;5049378;28;20611;-71
2023/08/04 01:22:49;;;;;;;10.07;4.83;;;15.20;99.90;;;;;;5053883;28;20202;-71
2023/08/04 01:25:15;;;;;;;12.70;5.17;;;15.20;99.90;;;;;;5052470;28;20567;-71
2023/08/04 01:27:46;;;;;;;10.50;4.80;;;15.20;99.90;;;;;;5053927;28;20190;-72
2023/08/04 01:30:18;;;;;;;7.60;4.80;;;15.10;99.90;;;;;;5054517;28;20202;-71
2023/08/04 01:32:44;;;;;;;12.50;4.60;;;15.10;99.90;;;;;;5050760;28;20210;-71
2023/08/04 01:35:10;;;;;;;7.83;4.80;;;15.10;99.90;;;;;;5040464;28;20190;-71
2023/08/04 01:37:36;;;;;;;11.23;4.50;;;15.10;99.90;;;;;;5035166;28;20183;-71
2023/08/04 01:40:02;;;;;;;7.37;4.60;;;15.10;99.90;;;;;;5034170;28;20196;-72
2023/08/04 01:42:27;;;;;;;11.07;4.93;;;15.10;99.90;;;;;;5034067;28;20616;-71
2023/08/04 01:44:53;;;;;;;7.23;4.57;;;15.00;99.90;;;;;;5033028;28;20550;-71
2023/08/04 01:47:19;;;;;;;10.70;5.57;;;15.00;99.90;;;;;;5050872;28;20277;-71
2023/08/04 01:49:44;;;;;;;9.97;4.87;;;15.00;99.90;;;;;;5052271;28;20206;-72
2023/08/04 01:52:10;;;;;;;7.53;5.07;;;15.00;99.90;;;;;;5053375;28;20217;-71
2023/08/04 01:54:35;;;;;;;9.63;5.00;;;15.10;99.90;;;;;;5054055;28;20178;-71
2023/08/04 01:57:01;;;;;;;8.43;5.17;;;15.10;99.90;;;;;;5052370;28;20210;-71
2023/08/04 01:59:27;;;;;;;9.03;4.80;;;15.00;99.90;;;;;;5053502;28;20206;-71
2023/08/04 02:01:52;;;;;;;11.37;5.00;;;15.00;99.90;;;;;;5052997;28;20264;-71
2023/08/04 02:04:18;;;;;;;14.80;5.50;;;15.10;99.90;;;;;;5052013;28;20191;-71
2023/08/04 02:06:43;;;;;;;10.83;5.60;;;15.10;99.90;;;;;;5044151;28;20187;-72
2023/08/04 02:09:09;;;;;;;6.03;4.80;;;15.10;99.90;;;;;;5053394;28;20198;-71
2023/08/04 02:11:35;;;;;;;8.83;5.70;;;15.10;99.90;;;;;;5053234;28;20246;-72
2023/08/04 02:14:00;;;;;;;6.57;5.03;;;15.10;99.90;;;;;;5053495;28;20617;-71
2023/08/04 02:16:26;;;;;;;9.17;5.60;;;15.00;99.90;;;;;;5042811;28;20183;-72
2023/08/04 02:19:03;;;;;;;9.77;6.13;;;15.00;99.90;;;;;;5033768;28;20180;-72
2023/08/04 02:21:29;;;;;;;8.80;6.07;;;15.00;99.90;;;;;;5043921;28;20194;-71
2023/08/04 02:23:54;;;;;;;7.57;5.30;;;15.00;99.90;;;;;;5052438;28;20186;-71
2023/08/04 02:26:20;;;;;;;10.40;5.57;;;15.00;99.90;;;;;;5043602;28;20217;-71
2023/08/04 02:28:46;;;;;;;15.10;5.77;;;15.10;99.90;;;;;;5033563;28;20187;-71
2023/08/04 02:31:11;;;;;;;8.20;5.93;;;15.10;99.90;;;;;;5034366;28;20607;-72
2023/08/04 02:33:37;;;;;;;9.60;6.33;;;15.00;99.90;;;;;;5041198;28;20190;-72
2023/08/04 02:36:03;;;;;;;11.93;6.50;;;15.00;99.90;;;;;;5047289;28;20198;-71
2023/08/04 02:38:28;;;;;;;11.67;6.30;;;15.00;99.90;;;;;;5041766;28;20270;-72
2023/08/04 02:41:02;;;;;;;10.90;6.47;;;15.00;99.90;;;;;;5051700;28;20286;-71
2023/08/04 02:43:28;;;;;;;8.40;5.73;;;15.00;99.90;;;;;;5013341;28;20215;-72
2023/08/04 02:45:54;;;;;;;15.00;5.97;;;14.90;99.90;;;;;;5020703;28;20213;-71
2023/08/04 02:48:19;;;;;;;9.87;5.53;;;14.90;99.90;;;;;;5052455;28;20229;-71
2023/08/04 02:50:46;;;;;;;10.13;6.47;;;14.90;99.90;;;;;;5052787;28;20195;-71
2023/08/04 02:53:15;;;;;;;11.77;7.17;;;14.90;99.90;;;;;;5033383;28;20657;-71
2023/08/04 02:55:40;;;;;;;9.97;6.53;;;14.80;99.90;;;;;;5033331;28;20180;-71
2023/08/04 02:58:06;;;;;;;8.67;6.20;;;14.80;99.90;;;;;;5042126;28;20171;-71
2023/08/04 03:00:32;;;;;;;13.97;6.60;;;14.90;99.90;;;;;;5033013;28;20198;-71
2023/08/04 03:02:59;;;;;;;10.67;5.90;;;14.90;99.90;;;;;;5032353;28;20183;-71
2023/08/04 03:05:25;;;;;;;11.63;7.03;;;14.90;99.90;;;;;;5032920;28;20266;-71
2023/08/04 03:07:51;;;;;;;12.97;6.67;;;14.90;99.90;;;;;;5051509;28;20257;-71
2023/08/04 03:10:16;;;;;;;10.87;6.43;;;14.90;99.90;;;;;;5046258;28;20559;-71
2023/08/04 03:12:42;;;;;;;10.47;6.63;;;14.90;99.90;;;;;;5031493;28;20211;-71
2023/08/04 03:15:08;;;;;;;14.47;6.80;;;14.90;99.90;;;;;;5031351;28;20214;-71
2023/08/04 03:17:33;;;;;;;9.27;6.13;;;15.00;99.90;;;;;;5049075;28;20179;-71
2023/08/04 03:19:59;;;;;;;13.20;6.70;;;15.00;99.90;;;;;;5051086;28;20202;-71
2023/08/04 03:22:25;;;;;;;12.57;6.67;;;15.00;99.90;;;;;;5035378;28;20184;-71
2023/08/04 03:24:50;;;;;;;16.33;6.97;;;15.00;99.90;;;;;;5032754;28;20180;-72
2023/08/04 03:27:16;;;;;;;11.80;6.27;;;15.00;99.90;;;;;;5033361;28;20186;-71
2023/08/04 03:29:41;;;;;;;7.87;6.00;;;15.00;99.90;;;;;;5032270;28;20237;-71
2023/08/04 03:32:07;;;;;;;11.60;7.33;;;15.00;99.90;;;;;;5031710;28;20199;-71
2023/08/04 03:34:33;;;;;;;10.93;6.57;;;15.00;99.90;;;;;;5032165;28;20172;-71
2023/08/04 03:36:58;;;;;;;15.33;7.50;;;15.00;99.90;;;;;;5043764;28;20179;-72
2023/08/04 03:39:24;;;;;;;8.57;6.77;;;15.10;99.90;;;;;;5052034;28;20206;-71
2023/08/04 03:41:49;;;;;;;14.30;7.23;;;15.10;99.90;;;;;;5049702;28;20187;-71
2023/08/04 03:44:15;;;;;;;16.40;7.20;;;15.10;99.90;;;;;;5050795;28;20210;-71
2023/08/04 03:46:41;;;;;;;10.37;5.80;;;15.20;99.90;;;;;;5042767;28;20183;-72
2023/08/04 03:49:06;;;;;;;10.93;5.60;;;15.20;99.90;;;;;;5031917;28;20179;-71
2023/08/04 03:51:32;;;;;;;11.40;6.33;;;15.20;99.90;;;;;;5030471;28;20208;-71
2023/08/04 03:53:57;;;;;;;11.43;5.57;;;15.20;99.90;;;;;;5029957;28;20179;-71
2023/08/04 03:56:23;;;;;;;13.23;6.27;;;15.20;99.90;;;;;;5036813;28;20179;-72
2023/08/04 03:58:48;;;;;;;7.70;5.90;;;15.20;99.90;;;;;;5051568;28;20179;-71
2023/08/04 04:01:14;;;;;;;10.37;6.57;;;15.20;99.90;;;;;;5050668;28;20289;-72
2023/08/04 04:03:40;;;;;;;13.17;6.40;;;15.30;99.90;;;;;;5052035;28;20179;-71
2023/08/04 04:06:05;;;;;;;16.07;7.60;;;15.30;99.90;;;;;;5047095;28;20183;-71
2023/08/04 04:08:31;;;;;;;11.57;6.50;;;15.30;99.90;;;;;;5031575;28;20171;-72
2023/08/04 04:10:57;;;;;;;7.00;6.20;;;15.30;99.90;;;;;;5031416;28;20214;-71
2023/08/04 04:13:23;;;;;;;12.33;7.27;;;15.30;99.90;;;;;;5039029;28;20219;-71
2023/08/04 04:15:48;;;;;;;13.50;6.23;;;15.30;99.90;;;;;;5038450;28;20179;-71
2023/08/04 04:18:15;;;;;;;14.87;6.67;;;15.40;99.90;;;;;;5031236;28;20228;-71
2023/08/04 04:20:40;;;;;;;11.23;6.30;;;15.40;99.90;;;;;;5032776;28;20197;-71
2023/08/04 04:23:06;;;;;;;16.67;6.63;;;15.40;99.90;;;;;;5047251;28;20703;-71
2023/08/04 04:25:31;;;;;;;8.57;6.70;;;15.40;99.90;;;;;;5051155;28;20251;-72
2023/08/04 04:27:57;;;;;;;9.53;6.23;;;15.40;99.90;;;;;;5048295;28;20210;-71
2023/08/04 04:30:23;;;;;;;8.37;6.80;;;15.40;99.90;;;;;;5051440;28;20195;-71
2023/08/04 04:32:48;;;;;;;7.00;5.87;;;15.30;99.90;;;;;;5050383;28;20206;-72
2023/08/04 04:35:14;;;;;;;16.63;6.73;;;15.30;99.90;;;;;;5045794;28;20540;-72
2023/08/04 04:37:39;;;;;;;11.13;6.13;;;15.30;99.90;;;;;;5047968;28;20175;-71
2023/08/04 04:40:06;;;;;;;15.63;7.60;;;15.30;99.90;;;;;;5050702;28;20199;-72
2023/08/04 04:42:33;;;;;;;15.03;7.23;;;15.30;99.90;;;;;;5050638;28;20205;-72
2023/08/04 04:44:58;;;;;;;13.67;6.70;;;15.30;99.90;;;;;;5034305;28;20271;-71
2023/08/04 04:47:24;;;;;;;12.33;6.67;;;15.40;99.90;;;;;;5046095;28;20214;-71
2023/08/04 04:49:50;;;;;;;10.60;6.20;;;15.40;99.90;;;;;;5051045;28;20282;-72
2023/08/04 04:52:32;;;;;;;13.60;7.10;;;15.50;99.90;;;;;;5036392;28;20229;-72
2023/08/04 04:54:59;;;;;;;13.33;7.10;;;15.50;99.90;;;;;;5031039;28;20198;-71
2023/08/04 04:57:25;;;;;;;14.47;7.17;;;15.50;99.90;;;;;;5041358;28;20174;-72
2023/08/04 04:59:51;;;;;;;13.60;7.07;;;15.60;99.90;;;;;;5050892;28;20186;-72
2023/08/04 05:02:16;;;;;;;9.43;6.57;;;15.70;99.90;;;;;;5036551;28;20183;-71
2023/08/04 05:04:43;;;;;;;14.13;6.43;;;15.80;99.90;;;;;;5031188;28;20187;-71
2023/08/04 05:07:09;;;;;;;12.13;6.97;;;15.80;99.90;;;;;;5042833;28;20186;-71
2023/08/04 05:09:34;;;;;;;9.77;7.10;;;15.80;99.90;;;;;;5051019;28;20277;-72
2023/08/04 05:12:00;;;;;;;12.07;7.47;;;15.80;99.90;;;;;;5048490;28;20715;-71
2023/08/04 05:14:26;;;;;;;10.37;6.17;;;15.90;99.90;;;;;;5047764;28;20175;-71
2023/08/04 05:16:51;;;;;;;14.40;6.57;;;15.90;99.90;;;;;;5035298;28;20176;-71
2023/08/04 05:19:17;;;;;;;16.20;6.70;;;16.00;99.90;;;;;;5047348;28;20226;-71
2023/08/04 05:21:42;;;;;;;14.93;6.73;;;15.90;99.90;;;;;;5034386;28;20535;-71
2023/08/04 05:24:08;;;;;;;13.13;6.73;;;15.90;99.90;;;;;;5030538;28;20290;-71
2023/08/04 05:26:33;;;;;;;12.70;6.60;;;15.90;99.90;;;;;;5030853;28;20194;-72
2023/08/04 05:28:59;;;;;;;14.90;6.50;;;16.00;99.90;;;;;;5030799;28;20180;-71
2023/08/04 05:31:25;;;;;;;17.67;7.17;;;16.00;99.90;;;;;;5031567;28;20184;-71
2023/08/04 05:33:50;;;;;;;15.77;7.80;;;16.10;99.90;;;;;;5029929;28;20602;-72
2023/08/04 05:36:16;;;;;;;11.33;6.83;;;16.20;99.90;;;;;;5036619;28;20221;-71
2023/08/04 05:38:43;;;;;;;14.00;7.10;;;16.20;99.90;;;;;;5054541;28;20241;-71
2023/08/04 05:41:09;;;;;;;13.27;7.20;;;16.20;99.90;;;;;;5050610;28;20710;-71
2023/08/04 05:43:35;;;;;;;14.80;6.97;;;16.10;99.90;;;;;;5034263;28;20258;-72
2023/08/04 05:46:02;;;;;;;14.20;7.33;;;16.10;99.90;;;;;;5044086;28;20764;-71
2023/08/04 05:48:29;;;;;;;10.80;6.20;;;16.20;99.90;;;;;;5053835;28;20206;-72
2023/08/04 05:50:55;;;;;;;9.47;6.53;;;16.30;99.90;;;;;;5052380;28;20190;-71
2023/08/04 05:53:21;;;;;;;10.47;7.23;;;16.40;99.90;;;;;;5036994;28;20242;-71
2023/08/04 05:55:46;;;;;;;13.47;7.20;;;16.40;99.90;;;;;;5034557;28;20171;-72
2023/08/04 05:58:12;;;;;;;12.43;6.77;;;16.50;99.90;;;;;;5034970;28;20604;-71
2023/08/04 06:00:37;;;;;;;14.57;6.97;;;16.60;99.90;;;;;;5053723;28;20222;-71
2023/08/04 06:03:04;;;;;;;10.80;6.50;;;16.70;99.90;;;;;;5037757;28;20770;-71
2023/08/04 06:05:30;;;;;;;11.57;6.83;;;16.70;99.90;;;;;;5034159;28;20183;-71
2023/08/04 06:07:55;;;;;;;14.83;6.73;;;16.80;99.90;;;;;;5050389;28;20263;-72
2023/08/04 06:10:21;;;;;;;13.00;6.37;;;16.90;99.90;;;;;;5053904;28;20253;-71
2023/08/04 06:12:50;;;;;;;11.47;5.90;;;17.00;99.90;;;;;;5035954;28;20388;-71
2023/08/04 06:15:16;;;;;;;10.50;6.60;;;17.00;99.90;;;;;;5033824;28;20661;-71
2023/08/04 06:17:43;;;;;;;8.93;5.80;;;17.00;99.90;;;;;;5046850;28;20175;-71
2023/08/04 06:20:09;;;;;;;9.57;5.23;;;17.00;99.90;;;;;;5053070;28;20890;-72
2023/08/04 06:22:35;;;;;;;11.27;5.47;;;16.90;99.90;;;;;;5041039;28;20202;-71
2023/08/04 06:25:02;;;;;;;12.27;6.20;;;16.90;99.90;;;;;;5033332;28;20214;-72
2023/08/04 06:27:28;;;;;;;9.60;5.40;;;16.90;99.90;;;;;;5034561;28;20190;-71
2023/08/04 06:29:53;;;;;;;10.57;6.27;;;16.90;99.90;;;;;;5033508;28;20552;-73
2023/08/04 06:32:19;;;;;;;9.53;6.10;;;16.80;99.90;;;;;;5032708;28;20203;-71
2023/08/04 06:34:45;;;;;;;12.17;6.43;;;16.80;99.90;;;;;;5032244;28;20182;-72
2023/08/04 06:37:10;;;;;;;10.23;5.67;;;16.80;99.90;;;;;;5043202;28;20253;-72
2023/08/04 06:39:36;;;;;;;7.33;5.60;;;16.90;99.90;;;;;;5053314;28;20186;-71
2023/08/04 06:42:02;;;;;;;11.40;6.00;;;17.00;99.90;;;;;;5041582;28;20229;-72
2023/08/04 06:44:28;;;;;;;11.20;6.13;;;17.10;99.90;;;;;;5033401;28;20179;-71
2023/08/04 06:46:53;;;;;;;10.90;5.70;;;17.20;99.90;;;;;;5033230;28;20524;-72
2023/08/04 06:49:19;;;;;;;16.43;6.40;;;17.40;99.90;;;;;;5034091;28;20199;-72
2023/08/04 06:51:44;;;;;;;8.83;5.67;;;17.50;99.90;;;;;;5049054;28;20626;-72
2023/08/04 06:54:10;;;;;;;8.53;5.73;;;17.50;99.90;;;;;;5032991;28;20182;-71
2023/08/04 06:56:36;;;;;;;8.67;5.50;;;17.50;99.90;;;;;;5034112;28;20183;-72
2023/08/04 06:59:01;;;;;;;12.43;6.90;;;17.60;99.90;;;;;;5041020;28;20305;-71
2023/08/04 07:01:27;;;;;;;15.17;6.40;;;17.60;99.90;;;;;;5043317;28;20190;-71
2023/08/04 07:03:52;;;;;;;8.20;5.90;;;17.60;99.90;;;;;;5043855;28;20700;-71
2023/08/04 07:06:18;;;;;;;7.20;6.13;;;17.60;99.90;;;;;;5045471;28;20187;-71
2023/08/04 07:08:43;;;;;;;10.53;6.00;;;17.80;99.90;;;;;;5043146;28;20660;-71
2023/08/04 07:11:16;;;;;;;12.20;5.43;;;18.00;99.90;;;;;;5051455;28;20210;-71
2023/08/04 07:13:43;;;;;;;13.37;6.37;;;18.20;99.90;;;;;;5052619;28;20179;-71
2023/08/04 07:16:10;;;;;;;9.33;6.03;;;18.30;99.90;;;;;;5042697;28;20183;-71
2023/08/04 07:18:36;;;;;;;8.97;5.57;;;18.30;99.90;;;;;;5032848;28;20645;-71
2023/08/04 07:21:09;;;;;;;10.07;5.47;;;18.40;99.90;;;;;;5032504;28;20192;-71
2023/08/04 07:23:35;;;;;;;8.10;5.20;;;18.60;99.90;;;;;;5040243;28;20665;-71
2023/08/04 07:26:05;;;;;;;8.73;5.73;;;18.70;99.90;;;;;;5032298;28;20194;-71
2023/08/04 07:28:31;;;;;;;5.57;4.97;;;18.90;99.90;;;;;;5031429;28;20176;-72
2023/08/04 07:30:59;;;;;;;12.03;5.13;;;19.10;99.90;;;;;;5031002;28;20195;-71
2023/08/04 07:33:25;;;;;;;6.57;4.83;;;19.20;99.90;;;;;;5040470;28;20206;-70
2023/08/04 07:35:54;;;;;;;10.80;5.47;;;19.20;99.90;;;;;;5052253;28;20160;-70
2023/08/04 07:38:20;;;;;;;7.97;5.00;;;19.10;99.90;;;;;;5052091;28;20218;-71
2023/08/04 07:40:46;;;;;;;6.03;4.30;;;19.20;99.90;;;;;;5046942;28;20314;-71
2023/08/04 07:43:13;;;;;;;11.07;5.37;;;19.30;99.90;;;;;;5031680;28;20184;-71
2023/08/04 07:45:39;;;;;;;14.87;4.93;;;19.20;99.90;;;;;;5032386;28;20233;-72
2023/08/04 07:48:05;;;;;;;13.40;4.87;;;19.10;99.90;;;;;;5031351;28;20183;-71
2023/08/04 07:50:30;;;;;;;8.30;5.23;;;19.30;99.90;;;;;;5032002;28;20563;-72
2023/08/04 07:52:56;;;;;;;5.13;4.63;;;19.50;99.90;;;;;;5031540;28;20214;-71
2023/08/04 07:55:22;;;;;;;8.40;4.90;;;19.70;99.90;;;;;;5032243;28;20164;-72
2023/08/04 07:57:48;;;;;;;13.00;4.70;;;19.60;99.90;;;;;;5031888;28;20652;-71
2023/08/04 08:00:14;;;;;;;10.73;4.90;;;19.70;99.90;;;;;;5031549;28;20191;-72
2023/08/04 08:02:39;;;;;;;7.67;4.23;;;19.70;99.90;;;;;;5030695;28;20302;-72
2023/08/04 08:05:07;;;;;;;11.40;4.63;;;19.80;99.90;;;;;;5031969;28;20258;-71
2023/08/04 08:07:33;;;;;;;9.17;4.87;;;19.90;99.90;;;;;;5032121;28;20553;-71
2023/08/04 08:09:59;;;;;;;5.17;4.03;;;20.10;99.90;;;;;;5031554;28;20192;-71
2023/08/04 08:12:25;;;;;;;6.73;4.10;;;20.30;99.90;;;;;;5031447;28;20350;-72
2023/08/04 08:14:50;;;;;;;5.33;4.67;;;20.30;99.90;;;;;;5031708;28;20182;-72
2023/08/04 08:17:16;;;;;;;6.07;4.20;;;20.50;99.90;;;;;;5031896;28;20171;-71
2023/08/04 08:19:41;;;;;;;7.33;4.30;;;20.50;99.90;;;;;;5031649;28;20342;-71
2023/08/04 08:22:08;;;;;;;7.37;4.57;;;20.40;99.90;;;;;;5031151;28;20194;-71
2023/08/04 08:24:34;;;;;;;8.03;4.67;;;20.50;99.90;;;;;;5031777;28;20489;-72
2023/08/04 08:26:59;;;;;;;6.10;4.30;;;20.50;99.90;;;;;;5031591;28;20176;-71
2023/08/04 08:29:25;;;;;;;10.73;4.67;;;20.40;99.90;;;;;;5031714;28;20199;-71
2023/08/04 08:31:51;;;;;;;7.97;4.00;;;20.40;99.90;;;;;;5030687;28;20187;-71
2023/08/04 08:34:16;;;;;;;7.60;3.93;;;20.50;99.90;;;;;;5030433;28;20254;-72
2023/08/04 08:36:42;;;;;;;10.07;4.43;;;20.70;99.90;;;;;;5030463;28;20164;-71
2023/08/04 08:39:07;;;;;;;6.50;4.23;;;20.80;99.90;;;;;;5030504;28;20179;-71
2023/08/04 08:41:33;;;;;;;8.13;4.00;;;20.80;99.90;;;;;;5030680;28;20226;-71
2023/08/04 08:43:59;;;;;;;9.23;4.40;;;20.60;99.90;;;;;;5030683;28;20176;-71
2023/08/04 08:46:25;;;;;;;5.77;4.40;;;20.60;99.90;;;;;;5029734;28;20265;-72
2023/08/04 08:48:55;;;;;;;7.10;3.97;;;20.90;99.90;;;;;;5031004;28;20664;-70
2023/08/04 08:51:22;;;;;;;7.00;4.50;;;21.10;99.90;;;;;;5031292;28;20313;-71
2023/08/04 08:53:49;;;;;;;4.47;4.00;;;21.00;99.90;;;;;;5031245;28;20163;-71
2023/08/04 08:56:15;;;;;;;5.00;4.50;;;20.90;99.90;;;;;;5029885;28;20175;-71
2023/08/04 08:58:42;;;;;;;9.10;4.27;;;20.80;99.90;;;;;;5031564;28;20175;-72
2023/08/04 09:01:08;;;;;;;5.87;4.30;;;20.90;99.90;;;;;;5031025;28;20203;-70
2023/08/04 09:03:40;;;;;;;8.93;4.17;;;20.90;99.90;;;;;;5030200;28;20293;-71
2023/08/04 09:06:06;;;;;;;6.77;3.80;;;20.80;99.90;;;;;;5030984;28;20652;-71
2023/08/04 09:08:32;;;;;;;7.10;4.63;;;20.80;99.90;;;;;;5031467;28;20203;-72
2023/08/04 09:10:58;;;;;;;9.90;4.25;;;20.90;99.90;;;;;;5032503;28;20210;-71
2023/08/04 09:13:26;;;;;;;6.00;3.90;;;21.10;99.90;;;;;;5034826;28;20237;-71
2023/08/04 09:15:58;;;;;;;7.82;5.07;;;21.10;99.90;;;;;;5033808;28;20219;-71
2023/08/04 09:18:32;;;;;;;9.60;4.47;;;21.10;99.90;;;;;;5035052;28;20199;-70
2023/08/04 09:21:01;;;;;;;6.47;4.00;;;21.10;99.90;;;;;;5034799;28;20684;-71
2023/08/04 09:23:29;;;;;;;7.20;3.80;;;21.00;99.90;;;;;;5035037;28;20210;-70
2023/08/04 09:25:55;;;;;;;4.78;4.07;;;21.00;99.90;;;;;;5034584;28;20183;-71
2023/08/04 09:28:21;;;;;;;5.75;4.05;;;21.10;99.90;;;;;;5034594;28;20294;-71
2023/08/04 09:31:06;;;;;;;7.47;3.60;;;21.20;99.90;;;;;;5045586;28;20282;-71
2023/08/04 09:33:33;;;;;;;7.32;3.55;;;21.50;99.90;;;;;;5031190;28;20691;-73
2023/08/04 09:36:03;;;;;;;4.28;3.20;;;21.90;99.90;;;;;;5054422;28;20206;-71
2023/08/04 09:38:29;;;;;;;3.78;2.95;;;22.00;99.90;;;;;;5053527;28;20181;-71
2023/08/04 09:41:02;;;;;;;3.67;2.80;;;22.30;99.90;;;;;;5038309;28;20274;-71
2023/08/04 09:43:28;;;;;;;4.22;2.90;;;23.00;99.90;;;;;;5033183;28;20202;-71
2023/08/04 09:46:05;;;;;;;6.47;3.92;;;24.10;99.90;;;;;;5034705;28;20179;-70
2023/08/04 09:48:31;;;;;;;5.53;4.20;;;25.20;99.90;;;;;;5034521;28;20679;-71
2023/08/04 09:51:09;;;;;;;5.65;3.25;;;26.20;99.90;;;;;;5040032;28;20198;-72
2023/08/04 09:53:46;;;;;;;5.90;3.20;;;26.40;99.90;;;;;;5051609;28;20687;-71
2023/08/04 09:56:13;;;;;;;3.92;3.53;;;26.10;99.90;;;;;;5053959;28;20182;-71
2023/08/04 09:58:40;;;;;;;4.07;3.28;;;26.00;99.90;;;;;;5054365;28;20167;-72
2023/08/04 10:01:06;;;;;;;6.55;5.20;;;25.70;99.90;;;;;;5046404;28;20199;-69
2023/08/04 10:03:37;;;;;;;4.22;2.95;;;25.20;99.90;;;;;;5033935;28;20226;-70
2023/08/04 10:06:05;;;;;;;7.40;2.92;;;24.90;99.90;;;;;;5033952;28;20631;-70
2023/08/04 10:08:33;;;;;;;5.38;3.00;;;24.50;99.90;;;;;;5034246;28;20197;-70
2023/08/04 10:10:59;;;;;;;5.25;3.72;;;23.80;99.90;;;;;;5039733;28;20202;-69
2023/08/04 10:13:27;;;;;;;7.05;2.80;;;23.10;99.90;;;;;;5053897;28;20279;-68
2023/08/04 10:15:57;;;;;;;6.65;3.95;;;22.50;99.90;;;;;;5054044;28;20171;-69
2023/08/04 10:18:24;;;;;;;2.97;2.78;;;22.00;99.90;;;;;;5052302;28;20278;-70
2023/08/04 10:20:51;;;;;;;3.95;2.97;;;21.90;99.90;;;;;;5033738;28;20222;-68
2023/08/04 10:23:17;;;;;;;3.70;2.67;;;22.40;99.90;;;;;;5033107;28;20180;-69
2023/08/04 10:25:54;;;;;;;4.03;2.80;;;22.70;99.90;;;;;;5033734;28;20177;-70
2023/08/04 10:28:20;;;;;;;7.25;3.15;;;22.70;99.90;;;;;;5032367;28;20182;-70
2023/08/04 10:30:46;;;;;;;4.13;3.13;;;22.40;99.90;;;;;;5053599;28;20673;-70
2023/08/04 10:33:11;;;;;;;4.20;2.95;;;21.90;99.90;;;;;;5052806;28;20206;-69
2023/08/04 10:36:05;;;;;;;4.38;3.30;;;21.60;99.90;;;;;;5053596;28;20174;-69
2023/08/04 10:38:47;;;;;;;4.10;3.50;;;21.30;99.90;;;;;;5037620;28;20179;-69
2023/08/04 10:41:14;;;;;;;4.80;3.50;;;21.10;99.90;;;;;;5033608;28;20199;-70
2023/08/04 10:43:40;;;;;;;9.52;3.35;;;21.20;99.90;;;;;;5032599;28;20167;-70
2023/08/04 10:46:12;;;;;;;5.05;3.20;;;21.30;99.90;;;;;;5033361;28;20251;-69
2023/08/04 10:48:40;;;;;;;4.15;3.28;;;21.40;99.90;;;;;;5049540;28;20288;-72
2023/08/04 10:51:10;;;;;;;4.18;3.47;;;21.70;99.90;;;;;;5053026;28;20195;-69
2023/08/04 10:53:36;;;;;;;8.43;3.28;;;21.90;99.90;;;;;;5052823;28;20257;-69
2023/08/04 10:56:06;;;;;;;6.45;3.10;;;21.90;99.90;;;;;;5053220;28;20248;-70
2023/08/04 10:58:31;;;;;;;4.43;2.80;;;22.10;99.90;;;;;;5037755;28;20760;-70
2023/08/04 11:00:57;;;;;;;3.70;3.03;;;22.40;99.90;;;;;;5033061;28;20325;-70
2023/08/04 11:03:24;;;;;;;3.83;3.47;;;22.60;99.90;;;;;;5033305;28;20168;-71
2023/08/04 11:05:50;;;;;;;5.85;3.35;;;22.70;99.90;;;;;;5033736;28;20176;-71
2023/08/04 11:08:18;;;;;;;6.75;3.45;;;23.00;99.90;;;;;;5045281;28;20637;-70
2023/08/04 11:10:55;;;;;;;3.58;2.78;;;23.30;99.90;;;;;;5052885;28;20187;-69
2023/08/04 11:13:22;;;;;;;4.63;3.10;;;23.50;99.90;;;;;;5051347;28;20206;-69
2023/08/04 11:15:49;;;;;;;3.10;2.90;;;23.90;99.90;;;;;;5045918;28;20185;-70
2023/08/04 11:18:19;;;;;;;3.60;2.90;;;24.30;99.90;;;;;;5032855;28;20716;-70
2023/08/04 11:20:45;;;;;;;3.50;2.50;;;24.40;99.90;;;;;;5032757;28;20211;-71
2023/08/04 11:23:11;;;;;;;5.38;3.15;;;24.30;99.90;;;;;;5032198;28;20168;-70
2023/08/04 11:25:40;;;;;;;3.10;2.90;;;24.30;99.90;;;;;;5037738;28;20520;-71
2023/08/04 11:28:07;;;;;;;3.35;3.05;;;24.40;99.90;;;;;;5052359;28;20239;-70
2023/08/04 11:30:35;;;;;;;3.22;2.92;;;24.60;99.90;;;;;;5052030;28;20574;-71
2023/08/04 11:33:02;;;;;;;4.30;2.83;;;24.90;99.90;;;;;;5050092;28;20206;-71
2023/08/04 11:35:31;;;;;;;4.35;4.00;;;25.20;99.90;;;;;;5048703;28;20229;-71
2023/08/04 11:37:57;;;;;;;4.15;3.78;;;25.30;99.90;;;;;;5032224;28;20202;-71
2023/08/04 11:40:24;;;;;;;4.07;3.78;;;25.40;99.90;;;;;;5032343;28;20581;-71
2023/08/04 11:42:50;;;;;;;3.78;3.47;;;25.30;99.90;;;;;;5032154;28;20194;-72
2023/08/04 11:45:16;;;;;;;4.75;4.10;;;25.20;99.90;;;;;;5047467;28;20645;-71
2023/08/04 11:47:42;;;;;;;4.15;3.85;;;25.00;99.90;;;;;;5052224;28;20186;-71
2023/08/04 11:50:08;;;;;;;4.22;3.75;;;24.60;99.90;;;;;;5051983;28;20191;-71
2023/08/04 11:52:38;;;;;;;3.25;3.05;;;23.90;99.90;;;;;;5050441;28;20206;-71
2023/08/04 11:55:05;;;;;;;5.00;3.22;;;23.30;99.90;;;;;;5038091;28;20209;-71
2023/08/04 11:57:31;;;;;;;8.07;3.53;;;22.80;99.90;;;;;;5032538;28;20657;-70
2023/08/04 11:59:57;;;;;;;5.13;3.55;;;22.40;99.90;;;;;;5032013;28;20242;-70
2023/08/04 12:02:24;;;;;;;3.83;3.58;;;22.00;99.90;;;;;;5030293;28;20171;-71
2023/08/04 12:05:13;;;;;;;3.08;2.88;;;22.00;99.90;;;;;;5043218;28;20205;-70
2023/08/04 12:07:39;;;;;;;4.72;3.38;;;22.10;99.90;;;;;;5052084;28;20197;-70
2023/08/04 12:10:06;;;;;;;3.10;2.90;;;22.10;99.90;;;;;;5049866;28;20226;-71
2023/08/04 12:12:39;;;;;;;3.17;2.70;;;22.30;99.90;;;;;;5051145;28;20234;-71
2023/08/04 12:15:05;;;;;;;2.88;2.60;;;22.70;99.90;;;;;;5038126;28;20175;-72
2023/08/04 12:17:36;;;;;;;2.85;2.65;;;23.10;99.90;;;;;;5031760;28;20574;-72
2023/08/04 12:20:02;;;;;;;4.85;3.08;;;23.70;99.90;;;;;;5031513;28;20704;-70
2023/08/04 12:22:28;;;;;;;2.67;2.47;;;23.90;99.90;;;;;;5031242;28;20258;-71
2023/08/04 12:24:53;;;;;;;2.80;2.60;;;24.30;99.90;;;;;;5036748;28;20326;-70
2023/08/04 12:27:19;;;;;;;2.80;2.60;;;24.90;99.90;;;;;;5040845;28;20183;-71
2023/08/04 12:29:44;;;;;;;2.75;2.55;;;25.20;99.90;;;;;;5034281;28;20195;-70
2023/08/04 12:32:10;;;;;;;2.83;2.63;;;25.90;99.90;;;;;;5031103;28;20538;-70
2023/08/04 12:34:36;;;;;;;3.22;2.47;;;26.70;99.90;;;;;;5030171;28;20181;-70
2023/08/04 12:37:01;;;;;;;2.50;2.30;;;26.90;99.90;;;;;;5031811;28;20237;-71
2023/08/04 12:39:28;;;;;;;2.47;2.30;;;27.10;99.90;;;;;;5031430;28;20188;-70
2023/08/04 12:41:53;;;;;;;2.80;2.60;;;27.20;99.90;;;;;;5030450;28;20179;-70